createdAt,value
2019-03-12T00:00:32.508Z,13.50
2019-03-12T00:03:01.809Z,11.70
2019-03-12T00:05:31.132Z,11.80
2019-03-12T00:08:00.471Z,11.27
2019-03-12T00:10:29.894Z,16.20
2019-03-12T00:12:59.201Z,13.77
2019-03-12T00:15:28.624Z,12.83
2019-03-12T00:17:57.960Z,13.07
2019-03-12T00:20:27.277Z,14.40
2019-03-12T00:22:56.672Z,14.90
2019-03-12T00:25:26.012Z,8.73
2019-03-12T00:27:55.332Z,15.00
2019-03-12T00:30:24.683Z,13.27
2019-03-12T00:32:55.840Z,9.13
2019-03-12T00:35:25.080Z,11.67
2019-03-12T00:37:54.382Z,18.83
2019-03-12T00:40:23.692Z,10.70
2019-03-12T00:42:53.050Z,11.97
2019-03-12T00:45:22.408Z,16.63
2019-03-12T00:47:51.763Z,10.70
2019-03-12T00:50:21.099Z,8.83
2019-03-12T00:52:50.467Z,13.87
2019-03-12T00:55:19.904Z,7.63
2019-03-12T00:57:49.251Z,18.67
2019-03-12T01:00:18.600Z,17.13
2019-03-12T01:02:47.964Z,12.40
2019-03-12T01:05:17.416Z,16.33
2019-03-12T01:07:46.738Z,12.47
2019-03-12T01:10:16.093Z,10.63
2019-03-12T01:12:45.434Z,15.77
2019-03-12T01:15:15.081Z,13.80
2019-03-12T01:17:44.447Z,11.20
2019-03-12T01:20:13.900Z,15.80
2019-03-12T01:22:43.236Z,15.43
2019-03-12T01:25:12.919Z,15.23
2019-03-12T01:27:42.235Z,11.97
2019-03-12T01:30:13.533Z,14.10
2019-03-12T01:32:42.861Z,16.27
2019-03-12T01:35:12.371Z,14.33
2019-03-12T01:37:41.680Z,14.77
2019-03-12T01:40:11.790Z,10.20
2019-03-12T01:42:41.122Z,11.83
2019-03-12T01:45:11.795Z,12.60
2019-03-12T01:47:41.121Z,15.17
2019-03-12T01:50:10.795Z,13.70
2019-03-12T01:52:40.111Z,12.10
2019-03-12T01:55:10.108Z,15.27
2019-03-12T01:57:39.418Z,17.87
2019-03-12T02:00:10.856Z,17.53
2019-03-12T02:02:40.206Z,19.63
2019-03-12T02:05:09.544Z,16.07
2019-03-12T02:07:38.970Z,14.77
2019-03-12T02:10:08.885Z,13.87
2019-03-12T02:12:38.258Z,14.67
2019-03-12T02:15:08.891Z,14.23
2019-03-12T02:17:38.224Z,14.63
2019-03-12T02:20:10.364Z,20.53
2019-03-12T02:22:39.757Z,16.87
2019-03-12T02:25:10.180Z,20.43
2019-03-12T02:27:39.547Z,15.13
2019-03-12T02:30:11.701Z,13.87
2019-03-12T02:32:44.325Z,19.33
2019-03-12T02:35:12.313Z,19.70
2019-03-12T02:37:41.681Z,17.03
2019-03-12T02:40:11.094Z,14.80
2019-03-12T02:42:40.494Z,19.30
2019-03-12T02:45:10.119Z,19.83
2019-03-12T02:47:39.492Z,18.73
2019-03-12T02:50:09.723Z,10.00
2019-03-12T02:52:39.207Z,13.43
2019-03-12T02:55:08.665Z,11.87
2019-03-12T02:57:37.955Z,17.83
2019-03-12T03:00:13.735Z,15.07
2019-03-12T03:02:43.115Z,15.10
2019-03-12T03:05:12.512Z,17.00
2019-03-12T03:08:03.035Z,13.13
2019-03-12T03:10:32.396Z,15.47
2019-03-12T03:13:01.807Z,20.53
2019-03-12T03:15:38.385Z,15.30
2019-03-12T03:18:07.715Z,16.90
2019-03-12T03:20:37.090Z,15.20
2019-03-12T03:23:06.538Z,17.70
2019-03-12T03:25:35.861Z,15.27
2019-03-12T03:28:05.207Z,15.07
2019-03-12T03:30:34.690Z,15.70
2019-03-12T03:33:04.241Z,17.13
2019-03-12T03:35:33.637Z,14.47
2019-03-12T03:38:11.026Z,20.17
2019-03-12T03:40:40.329Z,14.17
2019-03-12T03:43:09.754Z,20.17
2019-03-12T03:45:42.686Z,14.80
2019-03-12T03:48:12.047Z,13.50
2019-03-12T03:50:41.351Z,19.50
2019-03-12T03:53:10.684Z,17.30
2019-03-12T03:55:40.055Z,18.90
2019-03-12T03:58:09.390Z,15.20
2019-03-12T04:00:38.773Z,13.90
2019-03-12T04:03:08.131Z,15.13
2019-03-12T04:05:37.539Z,14.40
2019-03-12T04:08:06.875Z,16.90
2019-03-12T04:10:36.233Z,13.83
2019-03-12T04:13:05.609Z,17.33
2019-03-12T04:15:34.933Z,18.40
2019-03-12T04:18:04.264Z,12.67
2019-03-12T04:20:33.549Z,9.40
2019-03-12T04:23:02.877Z,12.30
2019-03-12T04:25:32.274Z,17.03
2019-03-12T04:28:01.648Z,7.47
2019-03-12T04:30:31.009Z,10.47
2019-03-12T04:33:00.346Z,10.37
2019-03-12T04:35:29.779Z,12.07
2019-03-12T04:37:59.120Z,8.00
2019-03-12T04:40:28.533Z,15.60
2019-03-12T04:42:58.007Z,14.23
2019-03-12T04:45:27.324Z,11.23
2019-03-12T04:47:56.654Z,12.20
2019-03-12T04:50:26.032Z,7.27
2019-03-12T04:52:55.339Z,12.77
2019-03-12T04:55:24.671Z,11.57
2019-03-12T04:57:53.998Z,16.00
2019-03-12T05:00:23.324Z,12.77
2019-03-12T05:02:52.737Z,10.97
2019-03-12T05:05:22.116Z,10.50
2019-03-12T05:07:51.449Z,14.30
2019-03-12T05:10:20.812Z,11.70
2019-03-12T05:12:50.148Z,8.60
2019-03-12T05:15:19.543Z,9.73
2019-03-12T05:17:48.881Z,7.10
2019-03-12T05:20:18.273Z,8.83
2019-03-12T05:22:47.669Z,6.33
2019-03-12T05:25:16.974Z,10.13
2019-03-12T05:27:46.365Z,12.40
2019-03-12T05:30:16.741Z,11.20
2019-03-12T05:32:46.094Z,9.07
2019-03-12T05:35:15.436Z,7.67
2019-03-12T05:37:45.151Z,15.30
2019-03-12T05:40:14.561Z,6.07
2019-03-12T05:42:43.937Z,11.43
2019-03-12T05:45:17.244Z,8.30
2019-03-12T05:48:03.147Z,8.93
2019-03-12T05:50:32.494Z,7.43
2019-03-12T05:53:12.146Z,10.13
2019-03-12T05:55:41.514Z,10.10
2019-03-12T05:58:16.869Z,6.87
2019-03-12T06:00:49.383Z,8.43
2019-03-12T06:03:18.780Z,10.63
2019-03-12T06:05:48.145Z,12.70
2019-03-12T06:08:17.531Z,14.20
2019-03-12T06:10:46.863Z,11.03
2019-03-12T06:13:16.157Z,7.00
2019-03-12T06:15:45.487Z,4.80
2019-03-12T06:18:14.836Z,10.03
2019-03-12T06:20:44.155Z,10.30
2019-03-12T06:23:15.266Z,11.90
2019-03-12T06:25:44.559Z,11.97
2019-03-12T06:28:13.896Z,11.03
2019-03-12T06:30:54.056Z,11.37
2019-03-12T06:33:26.825Z,8.23
2019-03-12T06:36:05.563Z,11.77
2019-03-12T06:38:53.452Z,11.47
2019-03-12T06:41:39.760Z,13.33
2019-03-12T06:44:28.065Z,15.90
2019-03-12T06:47:16.311Z,12.17
2019-03-12T06:49:54.369Z,9.77
2019-03-12T06:52:45.659Z,8.83
2019-03-12T06:55:21.656Z,9.37
2019-03-12T06:58:35.829Z,15.57
2019-03-12T07:01:27.072Z,12.87
2019-03-12T07:04:17.976Z,12.63
2019-03-12T07:07:07.005Z,13.03
2019-03-12T07:10:06.561Z,17.17
2019-03-12T07:12:52.230Z,12.33
2019-03-12T07:15:38.893Z,10.87
2019-03-12T07:18:36.113Z,11.00
2019-03-12T07:21:20.451Z,14.17
2019-03-12T07:24:07.344Z,9.07
2019-03-12T07:26:55.612Z,14.90
2019-03-12T07:29:53.221Z,15.30
2019-03-12T07:32:47.628Z,9.90
2019-03-12T07:35:44.807Z,18.27
2019-03-12T07:38:39.123Z,9.17
2019-03-12T07:41:32.177Z,12.03
2019-03-12T07:44:18.948Z,16.70
2019-03-12T07:47:07.503Z,7.07
2019-03-12T07:49:45.065Z,12.87
2019-03-12T07:52:25.737Z,13.03
2019-03-12T07:55:05.090Z,12.90
2019-03-12T07:57:52.154Z,9.90
2019-03-12T08:00:30.853Z,18.43
2019-03-12T08:03:34.071Z,11.50
2019-03-12T08:06:28.570Z,8.37
2019-03-12T08:09:23.018Z,11.37
2019-03-12T08:12:06.864Z,12.47
2019-03-12T08:15:01.163Z,10.90
2019-03-12T08:17:38.180Z,14.83
2019-03-12T08:20:32.718Z,9.97
2019-03-12T08:23:21.028Z,10.33
2019-03-12T08:26:12.345Z,14.33
2019-03-12T08:28:48.283Z,14.87
2019-03-12T08:31:29.339Z,11.97
2019-03-12T08:34:17.820Z,11.20
2019-03-12T08:36:54.296Z,12.80
2019-03-12T08:39:41.004Z,11.83
2019-03-12T08:42:28.919Z,12.47
2019-03-12T08:45:16.610Z,8.87
2019-03-12T08:47:59.173Z,11.30
2019-03-12T08:50:41.641Z,14.83
2019-03-12T08:53:23.174Z,12.47
2019-03-12T08:56:17.767Z,12.20
2019-03-12T08:59:15.034Z,13.40
2019-03-12T09:01:51.765Z,11.50
2019-03-12T09:04:40.060Z,11.60
2019-03-12T09:07:18.763Z,9.93
2019-03-12T09:10:00.649Z,8.93
2019-03-12T09:12:48.972Z,7.90
2019-03-12T09:15:35.864Z,7.43
2019-03-12T09:18:43.281Z,12.67
2019-03-12T09:21:34.418Z,12.47
2019-03-12T09:24:12.509Z,13.47
2019-03-12T09:26:59.433Z,9.70
2019-03-12T09:29:43.697Z,14.60
2019-03-12T09:32:46.870Z,11.37
2019-03-12T09:35:22.132Z,8.00
2019-03-12T09:38:10.475Z,9.20
2019-03-12T09:41:01.672Z,9.63
2019-03-12T09:43:47.968Z,10.33
2019-03-12T09:46:47.144Z,11.97
2019-03-12T09:49:34.116Z,10.73
2019-03-12T09:52:07.896Z,7.27
2019-03-12T09:55:08.210Z,8.77
2019-03-12T09:58:40.850Z,11.60
2019-03-12T10:02:11.031Z,9.07
2019-03-12T10:04:55.488Z,7.70
2019-03-12T10:07:35.214Z,11.93
2019-03-12T10:10:48.055Z,11.93
2019-03-12T10:13:35.043Z,11.80
2019-03-12T10:16:49.394Z,10.63
2019-03-12T10:19:35.086Z,12.20
2019-03-12T10:22:22.041Z,8.33
2019-03-12T10:25:28.668Z,7.63
2019-03-12T10:28:12.772Z,6.43
2019-03-12T10:31:09.373Z,7.07
2019-03-12T10:33:57.649Z,8.67
2019-03-12T10:36:42.539Z,9.20
2019-03-12T10:40:09.950Z,14.73
2019-03-12T10:42:46.550Z,5.07
2019-03-12T10:45:35.694Z,9.80
2019-03-12T10:48:05.918Z,11.70
2019-03-12T10:50:35.846Z,11.00
2019-03-12T10:53:06.260Z,9.73
2019-03-12T10:55:38.368Z,6.10
2019-03-12T10:58:07.983Z,7.17
2019-03-12T11:00:37.653Z,7.63
2019-03-12T11:03:07.036Z,5.40
2019-03-12T11:05:45.913Z,12.80
2019-03-12T11:08:08.002Z,12.10
2019-03-12T11:10:37.955Z,9.83
2019-03-12T11:13:07.572Z,10.27
2019-03-12T11:15:37.262Z,12.13
2019-03-12T11:18:08.904Z,4.67
2019-03-12T11:20:38.510Z,10.23
2019-03-12T11:23:08.052Z,9.03
2019-03-12T11:25:37.552Z,9.20
2019-03-12T11:28:07.099Z,6.00
2019-03-12T11:30:36.455Z,7.37
2019-03-12T11:33:05.981Z,9.17
2019-03-12T11:35:39.053Z,10.93
2019-03-12T11:38:06.862Z,9.03
2019-03-12T11:40:36.464Z,8.17
2019-03-12T11:43:06.180Z,9.37
2019-03-12T11:45:37.412Z,7.00
2019-03-12T11:48:06.851Z,7.30
2019-03-12T11:50:36.589Z,8.43
2019-03-12T11:53:06.245Z,7.57
2019-03-12T11:55:35.904Z,9.77
2019-03-12T11:58:05.312Z,7.60
2019-03-12T12:00:42.684Z,8.27
2019-03-12T12:03:12.109Z,5.90
2019-03-12T12:05:41.685Z,8.13
2019-03-12T12:08:11.278Z,8.90
2019-03-12T12:10:40.869Z,6.40
2019-03-12T12:13:10.440Z,12.20
2019-03-12T12:15:40.061Z,9.27
2019-03-12T12:18:10.018Z,5.87
2019-03-12T12:20:39.826Z,7.80
2019-03-12T12:23:09.249Z,9.33
2019-03-12T12:25:38.643Z,11.77
2019-03-12T12:28:07.994Z,7.67
2019-03-12T12:30:37.347Z,7.60
2019-03-12T12:33:06.915Z,5.30
2019-03-12T12:35:36.269Z,5.83
2019-03-12T12:38:05.604Z,10.90
2019-03-12T12:40:34.986Z,8.73
2019-03-12T12:43:04.391Z,7.57
2019-03-12T12:45:33.786Z,8.30
2019-03-12T12:48:03.193Z,7.60
2019-03-12T12:50:32.561Z,5.27
2019-03-12T12:53:01.931Z,9.87
2019-03-12T12:55:31.385Z,6.03
2019-03-12T12:58:00.875Z,5.00
2019-03-12T13:00:30.547Z,9.70
2019-03-12T13:03:00.071Z,10.60
2019-03-12T13:05:29.372Z,6.93
2019-03-12T13:07:58.762Z,5.17
2019-03-12T13:10:28.084Z,8.77
2019-03-12T13:12:57.463Z,8.03
2019-03-12T13:15:26.894Z,7.50
2019-03-12T13:17:56.217Z,9.90
2019-03-12T13:20:25.577Z,12.53
2019-03-12T13:22:55.079Z,7.03
2019-03-12T13:25:24.431Z,3.60
2019-03-12T13:27:53.848Z,9.30
2019-03-12T13:30:23.352Z,11.23
2019-03-12T13:32:52.825Z,6.57
2019-03-12T13:35:22.462Z,7.53
2019-03-12T13:37:51.899Z,6.93
2019-03-12T13:40:21.549Z,7.33
2019-03-12T13:42:50.990Z,7.03
2019-03-12T13:45:20.528Z,7.43
2019-03-12T13:47:49.895Z,6.73
2019-03-12T13:50:19.435Z,5.67
2019-03-12T13:52:48.838Z,6.20
2019-03-12T13:55:18.348Z,4.67
2019-03-12T13:57:48.060Z,10.77
2019-03-12T14:00:18.810Z,6.30
2019-03-12T14:02:48.149Z,7.03
2019-03-12T14:05:17.734Z,5.43
2019-03-12T14:07:47.234Z,4.57
2019-03-12T14:10:18.749Z,6.13
2019-03-12T14:12:48.388Z,10.03
2019-03-12T14:15:23.513Z,13.00
2019-03-12T14:17:52.956Z,8.10
2019-03-12T14:20:42.194Z,7.97
2019-03-12T14:23:12.962Z,5.77
2019-03-12T14:25:42.342Z,7.57
2019-03-12T14:28:11.775Z,7.63
2019-03-12T14:30:41.201Z,5.07
2019-03-12T14:33:10.707Z,8.70
2019-03-12T14:35:50.732Z,10.13
2019-03-12T14:38:11.340Z,9.27
2019-03-12T14:40:40.782Z,9.03
2019-03-12T14:43:10.105Z,10.20
2019-03-12T14:45:40.770Z,8.20
2019-03-12T14:48:57.255Z,7.07
2019-03-12T14:51:38.602Z,5.17
2019-03-12T14:54:07.979Z,5.03
2019-03-12T14:56:37.332Z,4.20
2019-03-12T14:59:06.964Z,10.97
2019-03-12T15:01:36.323Z,7.80
2019-03-12T15:04:05.976Z,5.20
2019-03-12T15:06:35.691Z,5.73
2019-03-12T15:09:07.976Z,4.60
2019-03-12T15:11:37.374Z,7.57
2019-03-12T15:14:06.779Z,6.20
2019-03-12T15:16:36.131Z,3.67
2019-03-12T15:19:05.555Z,9.63
2019-03-12T15:21:34.936Z,7.77
2019-03-12T15:24:04.329Z,4.50
2019-03-12T15:26:33.684Z,5.47
2019-03-12T15:29:03.179Z,3.87
2019-03-12T15:31:32.562Z,5.93
2019-03-12T15:34:01.865Z,5.40
2019-03-12T15:36:31.203Z,3.83
2019-03-12T15:39:00.586Z,4.07
2019-03-12T15:41:29.956Z,4.27
2019-03-12T15:43:59.327Z,6.87
2019-03-12T15:46:28.740Z,7.53
2019-03-12T15:48:58.117Z,6.73
2019-03-12T15:51:27.482Z,4.10
2019-03-12T15:53:56.871Z,7.57
2019-03-12T15:56:26.259Z,6.10
2019-03-12T15:58:55.593Z,5.13
2019-03-12T16:01:25.004Z,4.77
2019-03-12T16:03:54.454Z,3.47
2019-03-12T16:06:26.320Z,6.20
2019-03-12T16:08:54.984Z,5.67
2019-03-12T16:11:24.445Z,7.77
2019-03-12T16:13:53.985Z,3.27
2019-03-12T16:16:23.475Z,3.23
2019-03-12T16:18:53.019Z,4.20
2019-03-12T16:21:22.401Z,4.80
2019-03-12T16:23:52.856Z,4.90
2019-03-12T16:26:22.469Z,3.77
2019-03-12T16:28:51.883Z,3.83
2019-03-12T16:31:21.232Z,5.80
2019-03-12T16:33:50.572Z,5.97
2019-03-12T16:36:20.012Z,6.33
2019-03-12T16:38:49.434Z,3.33
2019-03-12T16:41:18.817Z,6.07
2019-03-12T16:43:48.244Z,3.40
2019-03-12T16:46:17.589Z,2.47
2019-03-12T16:48:46.912Z,4.40
2019-03-12T16:51:16.327Z,7.67
2019-03-12T16:53:45.760Z,4.00
2019-03-12T16:56:15.136Z,5.67
2019-03-12T16:58:44.502Z,5.10
2019-03-12T17:01:14.159Z,5.90
2019-03-12T17:03:43.528Z,4.93
2019-03-12T17:06:12.935Z,5.30
2019-03-12T17:08:42.353Z,4.43
2019-03-12T17:11:12.223Z,5.70
2019-03-12T17:13:41.614Z,6.07
2019-03-12T17:16:11.015Z,5.93
2019-03-12T17:18:40.435Z,5.70
2019-03-12T17:21:10.803Z,4.30
2019-03-12T17:23:40.203Z,5.37
2019-03-12T17:26:09.654Z,4.13
2019-03-12T17:28:39.033Z,4.47
2019-03-12T17:31:08.419Z,5.73
2019-03-12T17:33:37.756Z,3.63
2019-03-12T17:36:07.111Z,4.43
2019-03-12T17:38:46.054Z,4.63
2019-03-12T17:41:07.645Z,5.37
2019-03-12T17:43:36.999Z,5.60
2019-03-12T17:46:06.376Z,4.57
2019-03-12T17:48:35.770Z,3.87
2019-03-12T17:51:05.196Z,5.73
2019-03-12T17:53:34.558Z,7.30
2019-03-12T17:56:04.025Z,4.87
2019-03-12T17:58:33.505Z,6.97
2019-03-12T18:01:02.897Z,5.67
2019-03-12T18:03:32.206Z,5.07
2019-03-12T18:06:01.622Z,8.33
2019-03-12T18:08:30.956Z,2.63
2019-03-12T18:11:00.314Z,4.83
2019-03-12T18:13:29.644Z,3.63
2019-03-12T18:15:59.008Z,3.47
2019-03-12T18:18:28.429Z,7.10
2019-03-12T18:20:57.880Z,4.43
2019-03-12T18:23:27.259Z,4.60
2019-03-12T18:25:56.667Z,4.37
2019-03-12T18:28:26.079Z,4.03
2019-03-12T18:30:55.552Z,7.30
2019-03-12T18:33:25.040Z,7.83
2019-03-12T18:35:54.404Z,3.27
2019-03-12T18:38:24.320Z,3.20
2019-03-12T18:40:53.708Z,3.97
2019-03-12T18:43:23.211Z,5.00
2019-03-12T18:45:52.772Z,3.97
2019-03-12T18:48:22.428Z,5.20
2019-03-12T18:50:51.835Z,4.40
2019-03-12T18:53:21.267Z,3.70
2019-03-12T18:56:09.816Z,3.30
2019-03-12T18:58:39.895Z,5.10
2019-03-12T19:01:17.191Z,6.10
2019-03-12T19:03:46.718Z,3.43
2019-03-12T19:06:16.455Z,5.90
2019-03-12T19:08:47.990Z,5.43
2019-03-12T19:11:17.189Z,6.77
2019-03-12T19:13:46.712Z,4.53
2019-03-12T19:16:16.387Z,3.40
2019-03-12T19:18:46.073Z,5.40
2019-03-12T19:21:15.705Z,3.87
2019-03-12T19:23:51.899Z,4.63
2019-03-12T19:26:21.499Z,6.50
2019-03-12T19:28:51.158Z,5.37
2019-03-12T19:31:39.653Z,4.33
2019-03-12T19:34:13.378Z,2.33
2019-03-12T19:36:43.208Z,4.97
2019-03-12T19:39:25.694Z,4.27
2019-03-12T19:41:55.180Z,4.97
2019-03-12T19:44:24.786Z,4.87
2019-03-12T19:46:54.402Z,7.07
2019-03-12T19:49:23.822Z,3.43
2019-03-12T19:51:53.292Z,3.17
2019-03-12T19:54:22.839Z,3.87
2019-03-12T19:56:52.269Z,4.70
2019-03-12T19:59:21.935Z,4.23
2019-03-12T20:01:58.115Z,2.73
2019-03-12T20:04:27.810Z,5.00
2019-03-12T20:06:57.553Z,3.13
2019-03-12T20:10:05.183Z,5.77
2019-03-12T20:12:59.127Z,5.20
2019-03-12T20:16:39.634Z,4.37
2019-03-12T20:19:46.395Z,10.63
2019-03-12T20:22:58.329Z,2.87
2019-03-12T20:26:25.941Z,3.97
2019-03-12T20:29:32.460Z,7.00
2019-03-12T20:32:25.522Z,3.17
2019-03-12T20:35:49.431Z,4.43
2019-03-12T20:38:58.341Z,3.53
2019-03-12T20:42:11.376Z,6.60
2019-03-12T20:45:24.800Z,4.20
2019-03-12T20:48:34.360Z,4.57
2019-03-12T20:51:39.570Z,4.90
2019-03-12T20:54:48.194Z,4.60
2019-03-12T20:58:10.585Z,5.73
2019-03-12T21:01:27.986Z,6.00
2019-03-12T21:04:47.423Z,5.63
2019-03-12T21:08:12.536Z,5.73
2019-03-12T21:11:27.823Z,5.30
2019-03-12T21:14:52.001Z,7.90
2019-03-12T21:18:23.250Z,4.90
2019-03-12T21:21:42.408Z,3.67
2019-03-12T21:24:46.072Z,3.80
2019-03-12T21:27:52.024Z,2.07
2019-03-12T21:30:26.043Z,1.83
2019-03-12T21:32:55.436Z,1.93
2019-03-12T21:35:24.776Z,1.07
2019-03-12T21:37:54.146Z,1.03
2019-03-12T21:40:23.470Z,0.97
2019-03-12T21:42:52.854Z,1.73
2019-03-12T21:45:22.331Z,1.47
2019-03-12T21:47:51.657Z,2.73
2019-03-12T21:50:24.021Z,1.20
2019-03-12T21:52:52.072Z,1.93
2019-03-12T21:55:21.530Z,1.30
2019-03-12T21:57:50.835Z,2.50
2019-03-12T22:00:20.289Z,2.73
2019-03-12T22:02:49.718Z,1.17
2019-03-12T22:05:19.136Z,1.37
2019-03-12T22:07:48.492Z,1.33
2019-03-12T22:10:17.916Z,1.57
2019-03-12T22:12:48.060Z,2.13
2019-03-12T22:15:17.418Z,2.13
2019-03-12T22:17:46.752Z,2.20
2019-03-12T22:20:16.132Z,2.40
2019-03-12T22:22:49.567Z,5.80
2019-03-12T22:25:18.859Z,3.60
2019-03-12T22:27:48.204Z,4.40
2019-03-12T22:30:19.795Z,4.00
2019-03-12T22:32:49.116Z,3.83
2019-03-12T22:35:18.396Z,3.80
2019-03-12T22:37:47.753Z,4.00
2019-03-12T22:40:17.130Z,3.90
2019-03-12T22:42:46.481Z,3.93
2019-03-12T22:45:15.819Z,4.20
2019-03-12T22:47:45.152Z,3.67
2019-03-12T22:50:14.480Z,5.77
2019-03-12T22:52:43.811Z,6.30
2019-03-12T22:55:13.494Z,4.53
2019-03-12T22:57:42.912Z,5.20
2019-03-12T23:00:12.371Z,6.33
2019-03-12T23:02:41.749Z,5.47
2019-03-12T23:05:11.497Z,7.80
2019-03-12T23:07:40.813Z,5.60
2019-03-12T23:10:10.376Z,5.67
2019-03-12T23:12:39.787Z,5.80
2019-03-12T23:15:10.528Z,5.77
2019-03-12T23:17:39.875Z,6.10
2019-03-12T23:20:10.616Z,5.83
2019-03-12T23:22:40.007Z,5.40
2019-03-12T23:25:09.567Z,5.13
2019-03-12T23:27:38.978Z,7.30
2019-03-12T23:30:10.220Z,5.87
2019-03-12T23:32:39.524Z,5.30
2019-03-12T23:35:09.080Z,5.40
2019-03-12T23:37:38.384Z,4.90
2019-03-12T23:40:07.869Z,5.63
2019-03-12T23:42:37.196Z,6.97
2019-03-12T23:45:07.073Z,4.80
2019-03-12T23:47:36.524Z,5.83
2019-03-12T23:50:06.818Z,6.83
2019-03-12T23:52:36.225Z,8.73
2019-03-12T23:55:06.103Z,6.73
2019-03-12T23:57:35.481Z,6.30
